Terminal Aerodrome Forecast
Issued by NWS Billings, MT

Home | Current Version | Previous Version | Graphics & Text | Print | Product List | Glossary On
Versions: 1 2 3 4 5 6 7 8 9 10 11 12 13 14 15 16 17 18 19 20 21 22 23 24 25 26 27 28 29 30 31 32
000
FTUS45 KBYZ 290303 AAA
TAFMLS
TAF AMD
KMLS 290303Z 2903/2924 29010KT P6SM SCT100
     FM290500 22010KT P6SM FEW100 WS018/28030KT
     FM291500 28012G20KT P6SM FEW100=

USA.gov is the U.S. government's official web portal to all federal, state and local government web resources and services.